createdAt,value
2022-12-20T00:00:21.032Z,99316.94
2022-12-20T00:02:22.828Z,99322.56
2022-12-20T00:04:24.492Z,99322.63
2022-12-20T00:06:26.785Z,99339.88
2022-12-20T00:08:28.553Z,99346.72
2022-12-20T00:10:30.221Z,99317.38
2022-12-20T00:12:31.950Z,99302.38
2022-12-20T00:14:33.610Z,99305.94
2022-12-20T00:16:36.259Z,99313.22
2022-12-20T00:18:39.859Z,99313.22
2022-12-20T00:20:41.412Z,99316.56
2022-12-20T00:22:45.088Z,99317.47
2022-12-20T00:24:46.600Z,99318.34
2022-12-20T00:26:51.177Z,99306.06
2022-12-20T00:28:53.517Z,99319.59
2022-12-20T00:30:58.414Z,99315.41
2022-12-20T00:33:03.025Z,99318.75
2022-12-20T00:35:05.097Z,99311.69
2022-12-20T00:37:06.815Z,99314.78
2022-12-20T00:39:12.108Z,99322.09
2022-12-20T00:41:19.170Z,99338.75
2022-12-20T00:43:21.013Z,99322.91
2022-12-20T00:45:22.545Z,99307.34
2022-12-20T00:47:24.176Z,99292.53
2022-12-20T00:49:25.959Z,99294.41
2022-12-20T00:51:29.662Z,99306.47
2022-12-20T00:53:32.099Z,99312.53
2022-12-20T00:55:33.737Z,99304.41
2022-12-20T00:57:35.287Z,99314.03
2022-12-20T00:59:37.196Z,99298.00
2022-12-20T01:01:38.928Z,99288.81
2022-12-20T01:03:40.748Z,99279.66
2022-12-20T01:05:54.151Z,99270.94
2022-12-20T01:07:58.615Z,99272.16
2022-12-20T01:10:00.218Z,99279.03
2022-12-20T01:12:02.004Z,99280.28
2022-12-20T01:14:09.897Z,99301.72
2022-12-20T01:16:16.648Z,99282.78
2022-12-20T01:18:18.548Z,99270.53
2022-12-20T01:20:20.432Z,99285.72
2022-12-20T01:22:22.299Z,99287.38
2022-12-20T01:24:24.318Z,99283.84
2022-12-20T01:26:28.799Z,99276.34
2022-12-20T01:28:35.169Z,99272.63
2022-12-20T01:30:40.786Z,99272.63
2022-12-20T01:32:42.425Z,99270.13
2022-12-20T01:34:44.258Z,99267.00
2022-12-20T01:36:47.511Z,99278.47
2022-12-20T01:38:49.179Z,99286.41
2022-12-20T01:40:51.138Z,99283.69
2022-12-20T01:42:52.675Z,99278.28
2022-12-20T01:44:59.637Z,99285.56
2022-12-20T01:47:01.432Z,99293.06
2022-12-20T01:49:32.139Z,99299.31
2022-12-20T01:51:36.894Z,99298.44
2022-12-20T01:53:39.253Z,99303.03
2022-12-20T01:55:41.688Z,99314.28
2022-12-20T01:58:10.590Z,99299.28
2022-12-20T02:00:12.948Z,99287.03
2022-12-20T02:02:18.306Z,99287.03
2022-12-20T02:04:19.972Z,99286.38
2022-12-20T02:06:28.336Z,99293.69
2022-12-20T02:08:29.977Z,99272.22
2022-12-20T02:10:42.327Z,99269.91
2022-12-20T02:12:48.712Z,99270.97
2022-12-20T02:15:15.584Z,99247.00
2022-12-20T02:17:26.543Z,99243.69
2022-12-20T02:19:51.305Z,99238.28
2022-12-20T02:22:16.100Z,99229.31
2022-12-20T02:24:38.766Z,99208.50
2022-12-20T02:26:42.923Z,99216.63
2022-12-20T02:29:11.820Z,99234.72
2022-12-20T02:31:18.923Z,99228.91
2022-12-20T02:33:22.719Z,99203.69
2022-12-20T02:35:28.266Z,99213.72
2022-12-20T02:37:30.187Z,99214.56
2022-12-20T02:39:33.661Z,99213.94
2022-12-20T02:41:42.638Z,99203.94
2022-12-20T02:44:06.507Z,99208.09
2022-12-20T02:46:10.404Z,99216.03
2022-12-20T02:48:12.500Z,99217.06
2022-12-20T02:50:18.943Z,99220.56
2022-12-20T02:52:26.593Z,99229.94
2022-12-20T02:54:29.977Z,99221.44
2022-12-20T02:56:38.520Z,99214.56
2022-12-20T02:58:52.186Z,99214.16
2022-12-20T03:00:57.333Z,99221.41
2022-12-20T03:03:18.543Z,99224.34
2022-12-20T03:05:22.535Z,99221.03
2022-12-20T03:07:24.734Z,99229.34
2022-12-20T03:09:27.366Z,99238.69
2022-12-20T03:11:29.116Z,99231.19
2022-12-20T03:13:31.457Z,99224.31
2022-12-20T03:15:41.116Z,99231.41
2022-12-20T03:17:43.007Z,99233.50
2022-12-20T03:19:44.626Z,99237.66
2022-12-20T03:21:48.541Z,99242.66
2022-12-20T03:23:50.268Z,99241.81
2022-12-20T03:25:51.980Z,99238.69
2022-12-20T03:28:05.136Z,99231.41
2022-12-20T03:30:10.852Z,99224.97
2022-12-20T03:32:12.943Z,99228.50
2022-12-20T03:34:18.181Z,99222.47
2022-12-20T03:36:24.257Z,99220.38
2022-12-20T03:38:30.319Z,99221.63
2022-12-20T03:40:32.137Z,99223.94
2022-12-20T03:42:34.533Z,99221.00
2022-12-20T03:44:37.968Z,99210.38
2022-12-20T03:46:39.978Z,99217.25
2022-12-20T03:48:41.844Z,99207.28
2022-12-20T03:50:44.728Z,99193.53
2022-12-20T03:52:46.627Z,99188.94
2022-12-20T03:54:48.687Z,99190.19
2022-12-20T03:56:58.876Z,99185.41
2022-12-20T03:59:01.677Z,99183.50
2022-12-20T04:01:24.321Z,99205.16
2022-12-20T04:03:28.827Z,99207.47
2022-12-20T04:05:30.931Z,99202.69
2022-12-20T04:07:32.671Z,99190.81
2022-12-20T04:09:34.537Z,99177.47
2022-12-20T04:11:42.137Z,99172.69
2022-12-20T04:13:50.153Z,99169.97
2022-12-20T04:15:55.296Z,99168.31
2022-12-20T04:18:04.192Z,99171.25
2022-12-20T04:20:19.170Z,99170.00
2022-12-20T04:22:29.586Z,99163.53
2022-12-20T04:24:38.266Z,99158.56
2022-12-20T04:26:49.607Z,99157.09
2022-12-20T04:28:55.689Z,99165.41
2022-12-20T04:30:58.221Z,99164.78
2022-12-20T04:33:02.813Z,99168.53
2022-12-20T04:35:10.541Z,99159.59
2022-12-20T04:37:15.871Z,99167.06
2022-12-20T04:39:25.250Z,99171.66
2022-12-20T04:41:55.951Z,99167.06
2022-12-20T04:43:58.879Z,99165.00
2022-12-20T04:46:12.213Z,99166.88
2022-12-20T04:48:54.524Z,99178.53
2022-12-20T04:50:38.904Z,99172.47
2022-12-20T04:52:59.442Z,99180.59
2022-12-20T04:55:01.815Z,99190.19
2022-12-20T04:57:06.824Z,99176.44
2022-12-20T04:59:08.642Z,99180.59
2022-12-20T05:01:14.322Z,99166.25
2022-12-20T05:03:24.132Z,99160.19
2022-12-20T05:05:29.057Z,99165.41
2022-12-20T05:07:32.429Z,99160.84
2022-12-20T05:09:38.361Z,99157.06
2022-12-20T05:11:41.299Z,99149.38
2022-12-20T05:13:43.989Z,99144.78
2022-12-20T05:15:50.356Z,99143.97
2022-12-20T05:17:59.426Z,99142.69
2022-12-20T05:20:07.294Z,99145.00
2022-12-20T05:22:29.512Z,99141.69
2022-12-20T05:24:59.496Z,99138.34
2022-12-20T05:27:07.443Z,99144.38
2022-12-20T05:29:11.739Z,99158.34
2022-12-20T05:31:13.642Z,99161.84
2022-12-20T05:33:15.397Z,99144.38
2022-12-20T05:35:22.816Z,99144.38
2022-12-20T05:37:33.755Z,99130.84
2022-12-20T05:39:42.890Z,99127.53
2022-12-20T05:41:51.494Z,99125.84
2022-12-20T05:43:54.619Z,99138.34
2022-12-20T05:45:56.369Z,99140.66
2022-12-20T05:48:07.773Z,99150.84
2022-12-20T05:50:18.625Z,99138.56
2022-12-20T05:52:39.585Z,99134.59
2022-12-20T05:54:46.367Z,99131.25
2022-12-20T05:56:52.927Z,99132.50
2022-12-20T05:59:00.295Z,99121.50
2022-12-20T06:01:04.265Z,99116.88
2022-12-20T06:03:12.188Z,99113.38
2022-12-20T06:05:13.888Z,99125.84
2022-12-20T06:07:15.701Z,99125.84
2022-12-20T06:09:20.450Z,99126.25
2022-12-20T06:11:44.222Z,99128.56
2022-12-20T06:13:50.321Z,99126.88
2022-12-20T06:15:53.828Z,99133.75
2022-12-20T06:17:56.369Z,99129.63
2022-12-20T06:19:58.237Z,99125.84
2022-12-20T06:22:03.831Z,99123.56
2022-12-20T06:24:25.175Z,99108.56
2022-12-20T06:26:27.707Z,99117.53
2022-12-20T06:28:30.426Z,99112.31
2022-12-20T06:30:34.225Z,99115.03
2022-12-20T06:32:53.538Z,99120.84
2022-12-20T06:34:57.359Z,99136.47
2022-12-20T06:36:58.999Z,99131.47
2022-12-20T06:39:09.598Z,99125.22
2022-12-20T06:41:20.856Z,99131.88
2022-12-20T06:43:22.767Z,99140.19
2022-12-20T06:45:33.519Z,99141.88
2022-12-20T06:47:38.209Z,99142.09
2022-12-20T06:49:40.852Z,99147.50
2022-12-20T06:51:51.083Z,99151.44
2022-12-20T06:53:56.922Z,99151.44
2022-12-20T06:55:58.942Z,99151.03
2022-12-20T06:58:00.791Z,99166.25
2022-12-20T07:00:03.420Z,99156.47
2022-12-20T07:02:09.132Z,99153.13
2022-12-20T07:04:10.801Z,99148.97
2022-12-20T07:06:12.725Z,99156.88
2022-12-20T07:08:17.218Z,99153.53
2022-12-20T07:10:19.056Z,99148.97
2022-12-20T07:12:21.353Z,99137.94
2022-12-20T07:14:31.735Z,99110.22
2022-12-20T07:16:36.566Z,99105.63
2022-12-20T07:18:38.587Z,99103.78
2022-12-20T07:20:40.782Z,99101.91
2022-12-20T07:22:47.690Z,99100.66
2022-12-20T07:24:50.347Z,99112.94
2022-12-20T07:26:51.978Z,99099.38
2022-12-20T07:28:53.550Z,99112.31
2022-12-20T07:30:56.226Z,99110.44
2022-12-20T07:32:58.572Z,99103.34
2022-12-20T07:35:02.450Z,99102.72
2022-12-20T07:37:08.622Z,99111.28
2022-12-20T07:39:10.582Z,99117.09
2022-12-20T07:41:18.429Z,99111.06
2022-12-20T07:43:23.183Z,99117.72
2022-12-20T07:45:25.015Z,99116.88
2022-12-20T07:47:27.018Z,99107.94
2022-12-20T07:49:30.040Z,99110.44
2022-12-20T07:51:36.749Z,99113.16
2022-12-20T07:53:43.675Z,99117.09
2022-12-20T07:55:46.314Z,99113.97
2022-12-20T07:57:56.743Z,99097.31
2022-12-20T08:00:01.901Z,99104.19
2022-12-20T08:02:18.820Z,99107.31
2022-12-20T08:04:25.372Z,99099.78
2022-12-20T08:06:27.281Z,99090.63
2022-12-20T08:08:33.136Z,99091.69
2022-12-20T08:10:36.174Z,99081.47
2022-12-20T08:12:39.271Z,99068.97
2022-12-20T08:14:41.187Z,99064.19
2022-12-20T08:16:45.660Z,99062.09
2022-12-20T08:18:50.303Z,99077.91
2022-12-20T08:20:52.044Z,99078.09
2022-12-20T08:22:53.735Z,99083.72
2022-12-20T08:24:55.361Z,99078.09
2022-12-20T08:26:57.994Z,99073.56
2022-12-20T08:29:05.420Z,99083.09
2022-12-20T08:31:09.401Z,99088.09
2022-12-20T08:33:13.453Z,99099.56
2022-12-20T08:35:15.223Z,99104.75
2022-12-20T08:37:20.667Z,99093.28
2022-12-20T08:39:22.274Z,99091.63
2022-12-20T08:41:25.237Z,99082.66
2022-12-20T08:43:26.886Z,99083.31
2022-12-20T08:45:28.458Z,99075.59
2022-12-20T08:47:30.673Z,99075.59
2022-12-20T08:49:32.577Z,99072.84
2022-12-20T08:51:34.447Z,99079.31
2022-12-20T08:53:38.223Z,99075.56
2022-12-20T08:55:40.488Z,99068.03
2022-12-20T08:57:42.069Z,99065.56
2022-12-20T08:59:43.651Z,99065.56
2022-12-20T09:01:47.498Z,99073.66
2022-12-20T09:03:49.826Z,99075.91
2022-12-20T09:05:51.513Z,99065.06
2022-12-20T09:07:56.943Z,99059.25
2022-12-20T09:09:59.931Z,99067.59
2022-12-20T09:12:01.690Z,99073.41
2022-12-20T09:14:03.352Z,99063.81
2022-12-20T09:16:07.072Z,99075.06
2022-12-20T09:18:10.826Z,99072.56
2022-12-20T09:20:12.690Z,99079.00
2022-12-20T09:22:17.530Z,99082.56
2022-12-20T09:24:19.386Z,99084.03
2022-12-20T09:26:22.358Z,99079.81
2022-12-20T09:28:24.355Z,99071.09
2022-12-20T09:30:25.959Z,99070.84
2022-12-20T09:32:27.541Z,99073.16
2022-12-20T09:34:29.157Z,99077.53
2022-12-20T09:36:30.902Z,99072.75
2022-12-20T09:38:32.866Z,99065.00
2022-12-20T09:40:37.573Z,99056.03
2022-12-20T09:42:39.650Z,99057.91
2022-12-20T09:44:55.037Z,99047.25
2022-12-20T09:47:32.451Z,99037.47
2022-12-20T09:49:39.330Z,99036.22
2022-12-20T09:51:43.976Z,99027.00
2022-12-20T09:53:48.449Z,99023.63
2022-12-20T09:56:02.957Z,99022.19
2022-12-20T09:58:15.622Z,99012.13
2022-12-20T10:00:19.972Z,99017.34
2022-12-20T10:02:55.666Z,99015.47
2022-12-20T10:04:46.247Z,99004.41
2022-12-20T10:07:26.775Z,98999.75
2022-12-20T10:09:57.164Z,99009.94
2022-12-20T10:12:15.890Z,99017.28
2022-12-20T10:14:40.834Z,99013.41
2022-12-20T10:16:47.841Z,99018.34
2022-12-20T10:19:07.002Z,99025.47
2022-12-20T10:21:23.680Z,99014.84
2022-12-20T10:23:34.203Z,99003.81
2022-12-20T10:25:36.364Z,99003.56
2022-12-20T10:27:44.478Z,98988.28
2022-12-20T10:29:48.228Z,98986.22
2022-12-20T10:31:56.089Z,98978.13
2022-12-20T10:33:58.591Z,98981.25
2022-12-20T10:36:32.584Z,98987.22
2022-12-20T10:38:45.193Z,98980.34
2022-12-20T10:41:24.232Z,98988.44
2022-12-20T10:43:26.878Z,98973.66
2022-12-20T10:45:41.083Z,98972.81
2022-12-20T10:47:45.679Z,98971.50
2022-12-20T10:49:48.094Z,98979.56
2022-12-20T10:51:53.949Z,98968.50
2022-12-20T10:53:59.509Z,98977.00
2022-12-20T10:56:20.535Z,98970.16
2022-12-20T10:58:29.824Z,98958.50
2022-12-20T11:00:32.707Z,98965.56
2022-12-20T11:02:44.262Z,98965.53
2022-12-20T11:05:01.110Z,98965.44
2022-12-20T11:07:24.881Z,98952.69
2022-12-20T11:09:30.339Z,98963.28
2022-12-20T11:11:32.166Z,98957.53
2022-12-20T11:13:33.735Z,98950.75
2022-12-20T11:15:37.070Z,98935.06
2022-12-20T11:17:48.877Z,98939.66
2022-12-20T11:20:28.270Z,98929.88
2022-12-20T11:23:05.429Z,98928.66
2022-12-20T11:25:25.740Z,98929.88
2022-12-20T11:27:49.873Z,98937.38
2022-12-20T11:30:14.300Z,98922.38
2022-12-20T11:32:37.046Z,98912.81
2022-12-20T11:35:12.674Z,98908.59
2022-12-20T11:37:28.038Z,98906.47
2022-12-20T11:39:49.231Z,98913.28
2022-12-20T11:42:14.781Z,98911.19
2022-12-20T11:44:34.870Z,98910.66
2022-12-20T11:46:47.875Z,98892.38
2022-12-20T11:49:04.744Z,98891.91
2022-12-20T11:51:29.824Z,98902.94
2022-12-20T11:53:45.689Z,98897.94
2022-12-20T11:55:52.179Z,98894.31
2022-12-20T11:58:18.046Z,98886.25
2022-12-20T12:00:22.715Z,98876.22
2022-12-20T12:02:34.039Z,98878.09
2022-12-20T12:05:05.236Z,98872.66
2022-12-20T12:07:19.491Z,98865.09
2022-12-20T12:09:31.137Z,98876.03
2022-12-20T12:14:16.317Z,98873.97
2022-12-20T12:16:27.056Z,98854.25
2022-12-20T12:18:31.779Z,98866.03
2022-12-20T12:20:46.735Z,98866.03
2022-12-20T12:22:51.291Z,98855.66
2022-12-20T12:24:58.129Z,98857.41
2022-12-20T12:27:03.476Z,98865.31
2022-12-20T12:29:09.790Z,98856.84
2022-12-20T12:31:17.050Z,98836.78
2022-12-20T12:33:38.900Z,98837.03
2022-12-20T12:36:04.359Z,98827.91
2022-12-20T12:38:43.497Z,98836.75
2022-12-20T12:41:17.586Z,98839.34
2022-12-20T12:43:40.622Z,98837.72
2022-12-20T12:45:52.078Z,98831.69
2022-12-20T12:47:58.494Z,98837.97
2022-12-20T12:50:02.566Z,98828.03
2022-12-20T12:52:05.773Z,98838.78
2022-12-20T12:54:10.169Z,98835.50
2022-12-20T12:56:46.810Z,98847.19
2022-12-20T12:59:07.079Z,98829.81
2022-12-20T13:01:11.600Z,98824.03
2022-12-20T13:03:35.161Z,98809.13
2022-12-20T13:05:37.342Z,98807.69
2022-12-20T13:07:40.104Z,98804.16
2022-12-20T13:09:43.028Z,98803.34
2022-12-20T13:11:50.204Z,98788.66
2022-12-20T13:14:15.553Z,98783.69
2022-12-20T13:16:55.584Z,98779.09
2022-12-20T13:19:06.341Z,98778.97
2022-12-20T13:21:28.038Z,98788.78
2022-12-20T13:23:30.472Z,98790.31
2022-12-20T13:25:32.428Z,98780.75
2022-12-20T13:27:39.411Z,98772.47
2022-12-20T13:29:57.372Z,98774.94
2022-12-20T13:31:59.120Z,98783.81
2022-12-20T13:34:04.689Z,98781.53
2022-12-20T13:36:12.126Z,98782.72
2022-12-20T13:38:46.005Z,98788.28
2022-12-20T13:41:02.554Z,98789.13
2022-12-20T13:43:12.157Z,98787.47
2022-12-20T13:45:15.501Z,98787.47
2022-12-20T13:47:38.959Z,98784.41
2022-12-20T13:49:46.001Z,98795.53
2022-12-20T13:51:48.288Z,98805.81
2022-12-20T13:53:58.526Z,98805.56
2022-12-20T13:56:26.665Z,98803.09
2022-12-20T13:58:34.382Z,98810.78
2022-12-20T14:00:36.638Z,98811.34
2022-12-20T14:02:42.686Z,98814.06
2022-12-20T14:04:55.869Z,98823.06
2022-12-20T14:07:01.834Z,98821.28
2022-12-20T14:09:08.413Z,98806.13
2022-12-20T14:11:13.792Z,98804.16
2022-12-20T14:13:27.857Z,98798.94
2022-12-20T14:15:38.531Z,98801.88
2022-12-20T14:17:44.853Z,98790.19
2022-12-20T14:19:46.782Z,98782.13
2022-12-20T14:21:49.845Z,98776.22
2022-12-20T14:23:57.022Z,98769.84
2022-12-20T14:26:02.715Z,98776.59
2022-12-20T14:28:19.974Z,98767.69
2022-12-20T14:30:32.205Z,98761.44
2022-12-20T14:32:33.939Z,98756.22
2022-12-20T14:34:41.543Z,98742.28
2022-12-20T14:36:49.211Z,98757.66
2022-12-20T14:38:52.609Z,98761.81
2022-12-20T14:40:57.701Z,98756.00
2022-12-20T14:43:23.822Z,98730.69
2022-12-20T14:45:28.021Z,98730.47
2022-12-20T14:47:29.632Z,98733.88
2022-12-20T14:49:33.911Z,98734.63
2022-12-20T14:51:35.638Z,98738.97
2022-12-20T14:53:40.110Z,98740.88
2022-12-20T14:55:48.359Z,98734.47
2022-12-20T14:57:53.209Z,98730.69
2022-12-20T15:00:27.538Z,98724.06
2022-12-20T15:03:00.829Z,98731.75
2022-12-20T15:05:44.592Z,98744.16
2022-12-20T15:07:49.480Z,98736.78
2022-12-20T15:09:54.276Z,98737.03
2022-12-20T15:11:58.088Z,98724.84
2022-12-20T15:14:00.679Z,98736.00
2022-12-20T15:16:24.138Z,98736.03
2022-12-20T15:18:26.768Z,98723.63
2022-12-20T15:20:28.425Z,98716.75
2022-12-20T15:22:34.829Z,98733.41
2022-12-20T15:24:39.755Z,98732.94
2022-12-20T15:26:41.566Z,98716.72
2022-12-20T15:28:43.171Z,98709.88
2022-12-20T15:30:47.582Z,98726.78
2022-12-20T15:32:55.669Z,98716.16
2022-12-20T15:34:57.623Z,98719.34
2022-12-20T15:37:00.295Z,98726.44
2022-12-20T15:39:17.455Z,98718.75
2022-12-20T15:41:24.116Z,98711.19
2022-12-20T15:43:27.555Z,98715.56
2022-12-20T15:45:31.043Z,98716.41
2022-12-20T15:47:42.918Z,98719.00
2022-12-20T15:49:50.501Z,98714.38
2022-12-20T15:51:58.379Z,98707.19
2022-12-20T15:54:04.786Z,98713.09
2022-12-20T15:56:15.144Z,98706.97
2022-12-20T15:58:16.980Z,98713.25
2022-12-20T16:00:20.021Z,98713.13
2022-12-20T16:02:27.623Z,98715.59
2022-12-20T16:04:30.184Z,98730.25
2022-12-20T16:06:34.225Z,98725.06
2022-12-20T16:08:36.056Z,98731.56
2022-12-20T16:10:37.813Z,98731.56
2022-12-20T16:12:39.638Z,98721.97
2022-12-20T16:14:50.342Z,98713.34
2022-12-20T16:16:52.779Z,98711.09
2022-12-20T16:18:54.882Z,98721.41
2022-12-20T16:20:56.721Z,98714.66
2022-12-20T16:22:58.652Z,98721.41
2022-12-20T16:25:00.235Z,98717.63
2022-12-20T16:27:01.732Z,98718.91
2022-12-20T16:29:03.371Z,98720.56
2022-12-20T16:31:32.273Z,98722.94
2022-12-20T16:33:34.096Z,98707.31
2022-12-20T16:35:37.342Z,98698.84
2022-12-20T16:37:39.429Z,98684.03
2022-12-20T16:39:44.116Z,98665.25
2022-12-20T16:41:45.809Z,98647.53
2022-12-20T16:43:49.026Z,98634.19
2022-12-20T16:45:50.831Z,98625.94
2022-12-20T16:47:53.216Z,98628.66
2022-12-20T16:49:56.075Z,98637.03
2022-12-20T16:51:57.942Z,98620.97
2022-12-20T16:54:18.801Z,98641.50
2022-12-20T16:56:21.724Z,98648.25
2022-12-20T16:58:38.576Z,98652.63
2022-12-20T17:00:46.175Z,98667.03
2022-12-20T17:02:51.856Z,98658.06
2022-12-20T17:04:56.260Z,98655.47
2022-12-20T17:06:59.815Z,98654.16
2022-12-20T17:11:23.917Z,98661.94
2022-12-20T17:13:26.046Z,98660.31
2022-12-20T17:15:30.094Z,98661.72
2022-12-20T17:17:31.751Z,98670.09
2022-12-20T17:19:33.693Z,98663.03
2022-12-20T17:23:58.123Z,98681.69
2022-12-20T17:25:59.717Z,98685.94
2022-12-20T17:28:01.683Z,98679.69
2022-12-20T17:30:03.487Z,98687.72
2022-12-20T17:32:19.839Z,98689.25
2022-12-20T17:34:27.501Z,98688.91
2022-12-20T17:36:35.871Z,98693.97
2022-12-20T17:38:39.631Z,98709.09
2022-12-20T17:40:41.413Z,98710.75
2022-12-20T17:42:42.975Z,98723.53
2022-12-20T17:44:46.269Z,98738.28
2022-12-20T17:46:48.674Z,98729.56
2022-12-20T17:48:54.760Z,98716.69
2022-12-20T17:50:56.662Z,98706.03
2022-12-20T17:52:58.635Z,98705.69
2022-12-20T17:55:00.301Z,98714.63
2022-12-20T17:57:01.996Z,98712.41
2022-12-20T17:59:07.079Z,98714.19
2022-12-20T18:01:23.489Z,98718.06
2022-12-20T18:04:01.601Z,98722.06
2022-12-20T18:05:50.063Z,98718.06
2022-12-20T18:08:00.705Z,98724.44
2022-12-20T18:10:02.444Z,98736.88
2022-12-20T18:12:05.509Z,98746.31
2022-12-20T18:14:10.635Z,98733.06
2022-12-20T18:16:14.329Z,98724.31
2022-12-20T18:18:15.925Z,98730.56
2022-12-20T18:20:17.784Z,98725.25
2022-12-20T18:22:19.499Z,98710.25
2022-12-20T18:24:21.899Z,98713.47
2022-12-20T18:26:25.473Z,98700.34
2022-12-20T18:28:27.094Z,98688.19
2022-12-20T18:30:28.887Z,98682.97
2022-12-20T18:32:30.518Z,98666.91
2022-12-20T18:34:32.276Z,98645.44
2022-12-20T18:36:36.879Z,98656.88
2022-12-20T18:38:40.537Z,98650.84
2022-12-20T18:40:45.797Z,98647.31
2022-12-20T18:42:50.496Z,98653.22
2022-12-20T18:44:52.062Z,98650.38
2022-12-20T18:46:53.819Z,98666.28
2022-12-20T18:49:00.340Z,98650.72
2022-12-20T18:51:16.985Z,98662.81
2022-12-20T18:53:19.716Z,98647.16
2022-12-20T18:55:21.756Z,98634.66
2022-12-20T18:57:23.309Z,98615.66
2022-12-20T18:59:26.097Z,98602.91
2022-12-20T19:01:32.232Z,98607.50
2022-12-20T19:03:39.814Z,98621.91
2022-12-20T19:05:41.587Z,98642.19
2022-12-20T19:07:46.019Z,98639.22
2022-12-20T19:09:47.561Z,98634.50
2022-12-20T19:11:56.272Z,98617.63
2022-12-20T19:13:58.647Z,98610.06
2022-12-20T19:16:23.100Z,98615.97
2022-12-20T19:18:24.634Z,98618.09
2022-12-20T19:20:26.327Z,98612.41
2022-12-20T19:22:28.092Z,98610.28
2022-12-20T19:24:30.873Z,98612.19
2022-12-20T19:26:35.604Z,98611.56
2022-12-20T19:28:37.539Z,98611.13
2022-12-20T19:30:39.547Z,98612.53
2022-12-20T19:32:41.968Z,98622.94
2022-12-20T19:34:43.563Z,98622.56
2022-12-20T19:36:46.846Z,98616.31
2022-12-20T19:38:51.089Z,98604.31
2022-12-20T19:40:53.868Z,98606.44
2022-12-20T19:42:55.608Z,98605.38
2022-12-20T19:44:57.379Z,98596.81
2022-12-20T19:47:05.281Z,98607.25
2022-12-20T19:49:07.466Z,98607.50
2022-12-20T19:51:15.550Z,98603.09
2022-12-20T19:53:24.624Z,98594.06
2022-12-20T19:55:28.190Z,98591.78
2022-12-20T19:57:29.819Z,98590.34
2022-12-20T19:59:40.744Z,98600.84
2022-12-20T20:01:45.176Z,98595.56
2022-12-20T20:03:46.970Z,98596.97
2022-12-20T20:05:49.596Z,98608.22
2022-12-20T20:07:51.898Z,98600.78
2022-12-20T20:09:55.969Z,98607.88
2022-12-20T20:11:58.032Z,98607.28
2022-12-20T20:14:02.255Z,98601.84
2022-12-20T20:16:06.154Z,98606.31
2022-12-20T20:18:07.982Z,98595.91
2022-12-20T20:20:12.409Z,98594.28
2022-12-20T20:22:22.664Z,98585.31
2022-12-20T20:24:24.700Z,98578.00
2022-12-20T20:26:27.404Z,98588.03
2022-12-20T20:28:33.108Z,98600.78
2022-12-20T20:30:41.067Z,98599.47
2022-12-20T20:32:43.153Z,98601.84
2022-12-20T20:34:47.747Z,98614.47
2022-12-20T20:36:52.932Z,98606.78
2022-12-20T20:38:54.495Z,98598.06
2022-12-20T20:40:57.271Z,98597.22
2022-12-20T20:42:59.672Z,98598.53
2022-12-20T20:45:01.243Z,98607.50
2022-12-20T20:47:02.923Z,98605.03
2022-12-20T20:49:04.503Z,98608.69
2022-12-20T20:51:07.170Z,98610.91
2022-12-20T20:53:09.011Z,98610.13
2022-12-20T20:55:11.110Z,98612.00
2022-12-20T20:57:13.007Z,98605.28
2022-12-20T20:59:17.936Z,98603.97
2022-12-20T21:01:19.668Z,98602.19
2022-12-20T21:03:21.422Z,98603.84
2022-12-20T21:07:45.788Z,98615.06
2022-12-20T21:09:47.564Z,98617.56
2022-12-20T21:11:49.508Z,98601.59
2022-12-20T21:13:52.688Z,98596.66
2022-12-20T21:15:54.449Z,98611.03
2022-12-20T21:17:56.105Z,98614.38
2022-12-20T21:19:57.776Z,98610.25
2022-12-20T21:21:59.581Z,98603.72
2022-12-20T21:24:01.120Z,98605.84
2022-12-20T21:26:06.089Z,98611.88
2022-12-20T21:28:08.273Z,98609.63
2022-12-20T21:30:10.224Z,98604.66
2022-12-20T21:32:11.951Z,98602.66
2022-12-20T21:34:13.562Z,98594.84
2022-12-20T21:36:16.916Z,98591.81
2022-12-20T21:38:18.471Z,98591.44
2022-12-20T21:40:20.035Z,98591.56
2022-12-20T21:42:21.772Z,98594.84
2022-12-20T21:44:23.840Z,98585.91
2022-12-20T21:46:26.261Z,98587.66
2022-12-20T21:48:29.716Z,98601.47
2022-12-20T21:50:34.133Z,98594.16
2022-12-20T21:52:35.819Z,98595.22
2022-12-20T21:54:37.315Z,98598.66
2022-12-20T21:56:38.835Z,98596.16
2022-12-20T21:58:40.416Z,98601.38
2022-12-20T22:00:42.897Z,98604.91
2022-12-20T22:02:44.562Z,98598.41
2022-12-20T22:04:49.203Z,98596.78
2022-12-20T22:06:50.955Z,98590.72
2022-12-20T22:08:52.512Z,98580.34
2022-12-20T22:11:02.675Z,98587.09
2022-12-20T22:13:04.620Z,98616.72
2022-12-20T22:15:06.656Z,98618.97
2022-12-20T22:17:08.533Z,98600.41
2022-12-20T22:19:14.843Z,98579.75
2022-12-20T22:21:17.877Z,98583.53
2022-12-20T22:23:19.683Z,98603.38
2022-12-20T22:25:21.246Z,98605.38
2022-12-20T22:27:23.762Z,98617.88
2022-12-20T22:29:25.386Z,98627.69
2022-12-20T22:31:27.290Z,98624.88
2022-12-20T22:33:28.962Z,98642.84
2022-12-20T22:35:30.794Z,98635.47
2022-12-20T22:37:32.227Z,98631.97
2022-12-20T22:39:36.636Z,98639.03
2022-12-20T22:41:38.268Z,98617.78
2022-12-20T22:43:41.943Z,98622.63
2022-12-20T22:45:43.644Z,98624.28
2022-12-20T22:47:55.025Z,98622.03
2022-12-20T22:49:56.738Z,98623.09
2022-12-20T22:52:07.335Z,98615.75
2022-12-20T22:54:09.640Z,98618.47
2022-12-20T22:56:11.806Z,98621.19
2022-12-20T22:58:13.511Z,98610.13
2022-12-20T23:00:15.560Z,98610.13
2022-12-20T23:02:17.544Z,98613.63
2022-12-20T23:04:19.256Z,98613.28
2022-12-20T23:06:21.783Z,98605.63
2022-12-20T23:08:24.661Z,98594.28
2022-12-20T23:10:44.706Z,98596.41
2022-12-20T23:13:05.008Z,98593.81
2022-12-20T23:15:30.099Z,98581.75
2022-12-20T23:17:33.029Z,98588.72
2022-12-20T23:19:54.029Z,98590.28
2022-12-20T23:22:14.850Z,98584.72
2022-12-20T23:24:16.617Z,98592.97
2022-12-20T23:26:18.201Z,98595.69
2022-12-20T23:28:19.686Z,98591.09
2022-12-20T23:30:24.147Z,98593.81
2022-12-20T23:32:25.820Z,98590.88
2022-12-20T23:34:28.247Z,98598.53
2022-12-20T23:36:30.194Z,98587.06
2022-12-20T23:38:34.359Z,98587.06
2022-12-20T23:40:36.011Z,98577.41
2022-12-20T23:42:37.665Z,98587.19
2022-12-20T23:44:39.436Z,98589.91
2022-12-20T23:46:43.328Z,98604.19
2022-12-20T23:48:45.940Z,98605.25
2022-12-20T23:50:58.911Z,98608.81
2022-12-20T23:53:06.164Z,98603.94
2022-12-20T23:55:07.991Z,98598.31
2022-12-20T23:57:14.245Z,98587.66
2022-12-20T23:59:15.856Z,98576.78
